createdAt,value
2019-04-30T00:00:45.451Z,2.93
2019-04-30T00:03:25.147Z,3.23
2019-04-30T00:05:57.295Z,2.97
2019-04-30T00:08:25.826Z,3.67
2019-04-30T00:10:55.502Z,3.77
2019-04-30T00:13:25.882Z,4.00
2019-04-30T00:15:58.719Z,3.90
2019-04-30T00:18:25.442Z,3.60
2019-04-30T00:20:55.335Z,3.70
2019-04-30T00:23:29.317Z,3.73
2019-04-30T00:25:59.203Z,3.60
2019-04-30T00:28:25.584Z,3.30
2019-04-30T00:30:56.163Z,3.50
2019-04-30T00:33:27.461Z,3.83
2019-04-30T00:35:57.976Z,3.60
2019-04-30T00:38:29.482Z,3.60
2019-04-30T00:40:57.710Z,3.60
2019-04-30T00:43:26.303Z,3.10
2019-04-30T00:45:55.340Z,3.00
2019-04-30T00:48:29.536Z,3.60
2019-04-30T00:50:55.778Z,3.20
2019-04-30T00:53:26.213Z,3.37
2019-04-30T00:55:57.156Z,3.63
2019-04-30T00:58:30.267Z,3.20
2019-04-30T01:01:15.248Z,3.03
2019-04-30T01:03:49.292Z,3.13
2019-04-30T01:06:17.183Z,3.40
2019-04-30T01:08:46.745Z,3.70
2019-04-30T01:11:15.596Z,3.87
2019-04-30T01:13:50.231Z,3.13
2019-04-30T01:16:14.661Z,3.50
2019-04-30T01:18:43.286Z,3.80
2019-04-30T01:21:11.928Z,3.50
2019-04-30T01:23:47.875Z,3.67
2019-04-30T01:26:11.218Z,4.60
2019-04-30T01:28:39.854Z,3.93
2019-04-30T01:31:09.002Z,3.63
2019-04-30T01:33:38.985Z,3.20
2019-04-30T01:36:09.590Z,4.10
2019-04-30T01:38:40.017Z,3.60
2019-04-30T01:41:09.484Z,3.40
2019-04-30T01:43:38.657Z,3.70
2019-04-30T01:46:11.155Z,3.93
2019-04-30T01:48:39.325Z,3.70
2019-04-30T01:51:08.957Z,3.10
2019-04-30T01:53:38.684Z,3.20
2019-04-30T01:56:15.051Z,3.53
2019-04-30T01:58:49.488Z,3.40
2019-04-30T02:01:19.952Z,3.10
2019-04-30T02:03:48.785Z,3.43
2019-04-30T02:06:19.572Z,2.90
2019-04-30T02:08:49.393Z,3.40
2019-04-30T02:11:19.007Z,3.67
2019-04-30T02:13:49.203Z,3.00
2019-04-30T02:16:20.745Z,3.37
2019-04-30T02:18:49.500Z,2.90
2019-04-30T02:21:19.428Z,3.07
2019-04-30T02:23:49.281Z,3.50
2019-04-30T02:26:18.730Z,3.07
2019-04-30T02:28:49.463Z,3.17
2019-04-30T02:31:22.307Z,3.27
2019-04-30T02:33:50.377Z,3.20
2019-04-30T02:36:40.307Z,3.43
2019-04-30T02:39:11.111Z,3.20
2019-04-30T02:41:41.240Z,2.80
2019-04-30T02:44:11.254Z,4.80
2019-04-30T02:46:41.781Z,3.50
2019-04-30T02:49:12.433Z,3.20
2019-04-30T02:51:42.890Z,3.20
2019-04-30T02:54:23.679Z,3.97
2019-04-30T02:56:51.857Z,19.83
2019-04-30T02:59:20.482Z,4.97
2019-04-30T03:01:50.262Z,6.37
2019-04-30T03:04:19.743Z,19.27
2019-04-30T03:06:50.220Z,18.67
2019-04-30T03:09:20.272Z,12.13
2019-04-30T03:11:50.160Z,14.60
2019-04-30T03:14:20.086Z,4.63
2019-04-30T03:17:00.106Z,7.07
2019-04-30T03:19:33.542Z,6.93
2019-04-30T03:22:03.796Z,7.73
2019-04-30T03:24:32.555Z,4.93
2019-04-30T03:27:01.192Z,5.70
2019-04-30T03:29:30.451Z,5.33
2019-04-30T03:32:02.519Z,6.67
2019-04-30T03:34:32.593Z,7.07
2019-04-30T03:37:02.064Z,9.63
2019-04-30T03:39:33.648Z,6.03
2019-04-30T03:42:00.641Z,5.60
2019-04-30T03:44:32.262Z,6.87
2019-04-30T03:46:59.644Z,6.53
2019-04-30T03:49:29.933Z,5.40
2019-04-30T03:51:59.782Z,7.27
2019-04-30T03:54:29.396Z,5.87
2019-04-30T03:57:00.724Z,6.07
2019-04-30T03:59:30.229Z,5.93
2019-04-30T04:02:00.729Z,6.83
2019-04-30T04:04:52.101Z,6.50
2019-04-30T04:07:20.304Z,6.10
2019-04-30T04:09:59.871Z,6.10
2019-04-30T04:12:30.286Z,5.50
2019-04-30T04:15:03.219Z,6.90
2019-04-30T04:17:31.425Z,5.53
2019-04-30T04:20:00.060Z,4.87
2019-04-30T04:22:30.599Z,5.10
2019-04-30T04:24:59.973Z,5.03
2019-04-30T04:27:30.180Z,4.47
2019-04-30T04:30:01.079Z,4.37
2019-04-30T04:32:30.810Z,4.00
2019-04-30T04:35:00.405Z,13.30
2019-04-30T04:37:30.142Z,4.30
2019-04-30T04:39:59.671Z,4.87
2019-04-30T04:42:29.951Z,4.50
2019-04-30T04:44:59.555Z,4.83
2019-04-30T04:47:30.842Z,4.77
2019-04-30T04:50:00.741Z,4.63
2019-04-30T04:52:31.650Z,5.13
2019-04-30T04:55:00.410Z,4.53
2019-04-30T04:57:30.535Z,4.60
2019-04-30T05:00:06.416Z,4.67
2019-04-30T05:02:40.365Z,5.10
2019-04-30T05:05:09.798Z,4.93
2019-04-30T05:07:39.953Z,4.87
2019-04-30T05:10:09.270Z,4.87
2019-04-30T05:12:39.826Z,4.70
2019-04-30T05:15:09.465Z,5.73
2019-04-30T05:17:39.726Z,5.77
2019-04-30T05:20:09.983Z,5.03
2019-04-30T05:22:39.165Z,5.80
2019-04-30T05:25:08.809Z,5.33
2019-04-30T05:27:39.228Z,5.10
2019-04-30T05:30:11.761Z,5.53
2019-04-30T05:32:39.240Z,5.10
2019-04-30T05:35:09.589Z,4.53
2019-04-30T05:37:38.621Z,6.33
2019-04-30T05:40:09.247Z,4.57
2019-04-30T05:42:38.742Z,5.20
2019-04-30T05:45:09.468Z,5.37
2019-04-30T05:47:38.878Z,4.90
2019-04-30T05:50:09.031Z,5.07
2019-04-30T05:52:39.717Z,4.60
2019-04-30T05:55:08.796Z,5.83
2019-04-30T05:57:40.807Z,5.20
2019-04-30T06:00:09.917Z,5.23
2019-04-30T06:02:39.917Z,7.83
2019-04-30T06:05:08.941Z,5.60
2019-04-30T06:07:39.396Z,4.20
2019-04-30T06:10:10.094Z,4.37
2019-04-30T06:12:55.471Z,4.20
2019-04-30T06:15:44.155Z,5.30
2019-04-30T06:18:14.000Z,5.60
2019-04-30T06:20:42.890Z,6.00
2019-04-30T06:23:11.523Z,4.60
2019-04-30T06:25:55.802Z,5.87
2019-04-30T06:28:10.853Z,5.90
2019-04-30T06:30:39.875Z,5.30
2019-04-30T06:33:11.418Z,4.80
2019-04-30T06:35:39.268Z,4.90
2019-04-30T06:38:08.560Z,6.83
2019-04-30T06:40:39.075Z,5.90
2019-04-30T06:43:09.136Z,4.70
2019-04-30T06:45:38.813Z,5.37
2019-04-30T06:48:09.026Z,4.83
2019-04-30T06:50:39.358Z,5.80
2019-04-30T06:53:09.349Z,5.87
2019-04-30T06:55:39.165Z,5.53
2019-04-30T06:58:14.665Z,5.27
2019-04-30T07:00:40.049Z,6.60
2019-04-30T07:03:09.767Z,5.17
2019-04-30T07:05:39.240Z,7.73
2019-04-30T07:08:15.531Z,5.37
2019-04-30T07:10:55.009Z,6.33
2019-04-30T07:13:19.076Z,5.97
2019-04-30T07:15:49.004Z,5.10
2019-04-30T07:18:18.985Z,5.57
2019-04-30T07:20:48.631Z,8.57
2019-04-30T07:23:18.806Z,4.90
2019-04-30T07:25:49.303Z,5.00
2019-04-30T07:28:19.075Z,9.83
2019-04-30T07:30:49.480Z,6.80
2019-04-30T07:33:20.746Z,6.63
2019-04-30T07:35:49.888Z,5.20
2019-04-30T07:38:19.342Z,5.80
2019-04-30T07:40:49.306Z,5.50
2019-04-30T07:43:18.983Z,7.00
2019-04-30T07:45:49.597Z,6.50
2019-04-30T07:48:21.137Z,8.83
2019-04-30T07:50:51.473Z,14.40
2019-04-30T07:53:18.907Z,6.90
2019-04-30T07:55:49.420Z,5.20
2019-04-30T07:58:20.520Z,4.67
2019-04-30T08:00:49.704Z,5.23
2019-04-30T08:03:26.669Z,10.00
2019-04-30T08:05:59.837Z,7.17
2019-04-30T08:08:30.180Z,6.83
2019-04-30T08:10:59.190Z,8.43
2019-04-30T08:13:31.961Z,7.20
2019-04-30T08:15:59.636Z,5.90
2019-04-30T08:18:29.487Z,5.97
2019-04-30T08:20:58.678Z,4.80
2019-04-30T08:23:34.733Z,2.60
2019-04-30T08:25:58.985Z,7.13
2019-04-30T08:28:30.114Z,2.30
2019-04-30T08:30:58.917Z,2.50
2019-04-30T08:33:29.253Z,2.20
2019-04-30T08:36:00.770Z,2.87
2019-04-30T08:38:30.038Z,7.33
2019-04-30T08:41:00.830Z,3.43
2019-04-30T08:43:29.343Z,4.10
2019-04-30T08:45:59.482Z,4.70
2019-04-30T08:48:43.857Z,3.67
2019-04-30T08:50:59.544Z,2.03
2019-04-30T08:53:32.841Z,2.73
2019-04-30T08:55:59.160Z,1.70
2019-04-30T08:58:29.229Z,1.77
2019-04-30T09:00:58.775Z,1.70
2019-04-30T09:03:29.480Z,1.50
2019-04-30T09:05:59.607Z,2.10
2019-04-30T09:08:29.446Z,2.27
2019-04-30T09:10:59.518Z,1.80
2019-04-30T09:13:28.767Z,2.63
2019-04-30T09:15:59.350Z,2.83
2019-04-30T09:18:29.214Z,2.20
2019-04-30T09:21:04.213Z,2.40
2019-04-30T09:23:43.022Z,2.17
2019-04-30T09:25:58.714Z,3.00
2019-04-30T09:28:29.347Z,2.80
2019-04-30T09:30:58.670Z,2.63
2019-04-30T09:33:29.268Z,5.77
2019-04-30T09:35:59.514Z,2.57
2019-04-30T09:38:29.051Z,6.20
2019-04-30T09:40:59.449Z,3.03
2019-04-30T09:43:28.701Z,2.27
2019-04-30T09:45:59.147Z,2.33
2019-04-30T09:48:30.338Z,2.20
2019-04-30T09:51:00.476Z,3.07
2019-04-30T09:53:29.719Z,7.40
2019-04-30T09:55:59.621Z,3.37
2019-04-30T09:58:30.002Z,3.50
2019-04-30T10:00:59.318Z,4.70
2019-04-30T10:03:30.260Z,4.13
2019-04-30T10:05:59.057Z,2.27
2019-04-30T10:08:30.338Z,3.67
2019-04-30T10:11:00.198Z,3.47
2019-04-30T10:13:28.824Z,5.80
2019-04-30T10:16:05.160Z,3.20
2019-04-30T10:18:33.861Z,3.43
2019-04-30T10:21:02.491Z,2.80
2019-04-30T10:23:31.119Z,2.70
2019-04-30T10:25:59.764Z,4.47
2019-04-30T10:28:28.703Z,2.60
2019-04-30T10:30:57.357Z,2.03
2019-04-30T10:33:25.987Z,2.43
2019-04-30T10:35:54.616Z,3.23
2019-04-30T10:38:23.456Z,2.17
2019-04-30T10:40:52.078Z,2.00
2019-04-30T10:43:20.652Z,3.33
2019-04-30T10:45:49.284Z,2.30
2019-04-30T10:48:18.061Z,2.23
2019-04-30T10:50:46.690Z,2.13
2019-04-30T10:53:15.616Z,2.20
2019-04-30T10:55:44.311Z,1.90
2019-04-30T10:58:15.379Z,1.90
2019-04-30T11:00:43.376Z,1.63
2019-04-30T11:03:19.914Z,1.90
2019-04-30T11:05:42.409Z,1.83
2019-04-30T11:08:11.233Z,1.40
2019-04-30T11:10:40.112Z,2.07
2019-04-30T11:13:08.775Z,2.13
2019-04-30T11:15:39.303Z,2.67
2019-04-30T11:18:07.880Z,1.80
2019-04-30T11:20:36.705Z,1.57
2019-04-30T11:23:14.253Z,1.73
2019-04-30T11:25:37.112Z,1.80
2019-04-30T11:28:06.750Z,1.63
2019-04-30T11:30:36.437Z,2.00
2019-04-30T11:33:05.395Z,1.70
2019-04-30T11:35:34.241Z,2.13
2019-04-30T11:38:20.490Z,2.40
2019-04-30T11:40:48.659Z,1.87
2019-04-30T11:43:18.227Z,1.90
2019-04-30T11:45:58.679Z,2.17
2019-04-30T11:48:28.870Z,1.40
2019-04-30T11:50:59.432Z,1.90
2019-04-30T11:53:30.647Z,1.70
2019-04-30T11:55:59.167Z,2.30
2019-04-30T11:58:30.401Z,1.93
2019-04-30T12:00:59.294Z,2.00
2019-04-30T12:03:28.659Z,2.17
2019-04-30T12:05:58.945Z,1.80
2019-04-30T12:08:29.423Z,1.63
2019-04-30T12:11:02.472Z,2.00
2019-04-30T12:13:31.986Z,2.27
2019-04-30T12:15:59.655Z,2.37
2019-04-30T12:18:28.583Z,1.87
2019-04-30T12:20:57.224Z,2.07
2019-04-30T12:23:25.859Z,2.13
2019-04-30T12:25:54.601Z,1.57
2019-04-30T12:28:23.243Z,1.40
2019-04-30T12:30:51.881Z,1.63
2019-04-30T12:33:20.501Z,1.40
2019-04-30T12:35:51.340Z,1.67
2019-04-30T12:38:19.475Z,2.40
2019-04-30T12:40:48.218Z,2.60
2019-04-30T12:43:16.873Z,1.90
2019-04-30T12:45:45.541Z,1.50
2019-04-30T12:48:20.283Z,1.70
2019-04-30T12:50:53.532Z,1.67
2019-04-30T12:53:23.798Z,1.50
2019-04-30T12:56:06.549Z,1.40
2019-04-30T12:58:35.377Z,1.23
2019-04-30T13:01:04.188Z,1.27
2019-04-30T13:03:32.767Z,1.00
2019-04-30T13:06:02.527Z,1.80
2019-04-30T13:08:32.379Z,1.40
2019-04-30T13:11:01.970Z,1.70
2019-04-30T13:13:32.168Z,1.53
2019-04-30T13:16:01.162Z,1.27
2019-04-30T13:18:29.806Z,1.20
2019-04-30T13:20:58.952Z,0.93
2019-04-30T13:23:29.783Z,1.17
2019-04-30T13:26:00.857Z,1.33
2019-04-30T13:28:30.638Z,1.10
2019-04-30T13:30:59.408Z,1.07
2019-04-30T13:33:29.692Z,1.10
2019-04-30T13:35:58.899Z,1.67
2019-04-30T13:38:29.290Z,1.10
2019-04-30T13:40:59.581Z,0.80
2019-04-30T13:43:45.014Z,1.30
2019-04-30T13:46:13.661Z,1.50
2019-04-30T13:48:42.280Z,1.30
2019-04-30T13:51:10.927Z,1.00
2019-04-30T13:53:39.645Z,1.07
2019-04-30T13:56:08.889Z,1.10
2019-04-30T13:58:37.581Z,1.10
2019-04-30T14:01:06.481Z,1.43
2019-04-30T14:03:36.758Z,0.83
2019-04-30T14:06:06.456Z,0.70
2019-04-30T14:08:51.813Z,1.20
2019-04-30T14:11:20.439Z,1.07
2019-04-30T14:13:49.197Z,0.97
2019-04-30T14:16:17.896Z,1.23
2019-04-30T14:18:48.675Z,0.90
2019-04-30T14:21:16.884Z,1.10
2019-04-30T14:23:47.300Z,1.17
2019-04-30T14:26:15.932Z,0.77
2019-04-30T14:28:46.617Z,0.90
2019-04-30T14:31:15.007Z,0.80
2019-04-30T14:33:43.639Z,1.10
2019-04-30T14:36:13.723Z,0.93
2019-04-30T14:38:42.348Z,1.00
2019-04-30T14:41:11.907Z,1.10
2019-04-30T14:43:44.231Z,1.27
2019-04-30T14:46:33.718Z,1.40
2019-04-30T14:49:10.057Z,1.30
2019-04-30T14:51:37.670Z,2.20
2019-04-30T14:54:09.529Z,1.77
2019-04-30T14:56:51.847Z,1.40
2019-04-30T14:59:39.037Z,1.70
2019-04-30T15:02:29.577Z,4.53
2019-04-30T15:04:58.735Z,1.90
2019-04-30T15:07:29.446Z,2.47
2019-04-30T15:09:59.487Z,2.13
2019-04-30T15:12:29.447Z,1.47
2019-04-30T15:14:59.787Z,1.80
2019-04-30T15:17:28.417Z,1.43
2019-04-30T15:19:58.950Z,1.97
2019-04-30T15:22:29.287Z,1.87
2019-04-30T15:24:59.170Z,2.20
2019-04-30T15:27:29.096Z,1.90
2019-04-30T15:30:00.509Z,1.60
2019-04-30T15:32:30.627Z,1.70
2019-04-30T15:34:59.338Z,1.90
2019-04-30T15:37:28.741Z,1.50
2019-04-30T15:39:59.274Z,2.07
2019-04-30T15:42:28.026Z,1.50
2019-04-30T15:44:56.666Z,1.23
2019-04-30T15:47:25.288Z,1.80
2019-04-30T15:49:53.934Z,1.90
2019-04-30T15:52:24.203Z,1.60
2019-04-30T15:54:52.839Z,3.00
2019-04-30T15:57:21.517Z,2.10
2019-04-30T15:59:50.108Z,1.90
2019-04-30T16:02:23.139Z,1.40
2019-04-30T16:05:11.735Z,2.13
2019-04-30T16:07:42.023Z,2.37
2019-04-30T16:10:28.525Z,2.90
2019-04-30T16:12:58.958Z,1.90
2019-04-30T16:15:31.784Z,1.70
2019-04-30T16:18:02.052Z,4.80
2019-04-30T16:20:32.072Z,2.27
2019-04-30T16:23:00.827Z,2.00
2019-04-30T16:25:30.314Z,2.27
2019-04-30T16:27:59.260Z,2.40
2019-04-30T16:30:28.941Z,3.07
2019-04-30T16:33:19.492Z,2.63
2019-04-30T16:35:50.803Z,3.50
2019-04-30T16:38:20.763Z,2.93
2019-04-30T16:40:49.065Z,4.30
2019-04-30T16:43:18.639Z,4.37
2019-04-30T16:45:49.376Z,10.47
2019-04-30T16:48:19.425Z,3.57
2019-04-30T16:50:51.175Z,2.70
2019-04-30T16:53:24.648Z,2.57
2019-04-30T16:55:52.058Z,2.60
2019-04-30T16:58:22.061Z,3.47
2019-04-30T17:00:52.125Z,2.80
2019-04-30T17:03:28.770Z,2.60
2019-04-30T17:05:59.666Z,2.20
2019-04-30T17:08:32.831Z,3.00
2019-04-30T17:11:07.433Z,3.70
2019-04-30T17:13:38.902Z,3.63
2019-04-30T17:16:11.338Z,4.37
2019-04-30T17:18:41.708Z,5.07
2019-04-30T17:21:10.596Z,5.67
2019-04-30T17:23:39.266Z,5.43
2019-04-30T17:26:07.995Z,6.37
2019-04-30T17:28:38.613Z,3.17
2019-04-30T17:31:24.660Z,7.43
2019-04-30T17:33:53.356Z,26.73
2019-04-30T17:36:23.445Z,17.03
2019-04-30T17:38:53.722Z,22.43
2019-04-30T17:41:22.480Z,38.60
2019-04-30T17:43:51.207Z,17.60
2019-04-30T17:46:20.212Z,13.90
2019-04-30T17:48:50.498Z,6.90
2019-04-30T17:51:19.414Z,14.23
2019-04-30T17:54:07.129Z,10.97
2019-04-30T17:56:35.757Z,11.10
2019-04-30T17:59:06.813Z,8.97
2019-04-30T18:01:36.014Z,9.43
2019-04-30T18:04:04.691Z,8.03
2019-04-30T18:06:33.413Z,8.67
2019-04-30T18:09:02.116Z,7.67
2019-04-30T18:11:32.282Z,8.60
2019-04-30T18:14:00.952Z,7.33
2019-04-30T18:16:29.606Z,7.83
2019-04-30T18:19:02.844Z,9.77
2019-04-30T18:21:40.123Z,9.87
2019-04-30T18:24:19.715Z,12.53
2019-04-30T18:26:51.755Z,9.57
2019-04-30T18:29:20.411Z,5.37
2019-04-30T18:31:50.688Z,3.03
2019-04-30T18:34:19.509Z,3.17
2019-04-30T18:36:48.652Z,4.20
2019-04-30T18:39:18.916Z,3.67
2019-04-30T18:41:50.476Z,2.73
2019-04-30T18:44:20.168Z,3.13
2019-04-30T18:46:49.436Z,3.20
2019-04-30T18:49:18.734Z,6.57
2019-04-30T18:51:49.209Z,3.63
2019-04-30T18:54:18.372Z,4.63
2019-04-30T18:56:49.003Z,1.60
2019-04-30T18:59:19.517Z,2.40
2019-04-30T19:01:48.404Z,1.93
2019-04-30T19:04:18.943Z,2.10
2019-04-30T19:06:47.503Z,3.20
2019-04-30T19:09:33.084Z,3.67
2019-04-30T19:12:21.688Z,3.37
2019-04-30T19:14:54.705Z,5.83
2019-04-30T19:17:29.398Z,2.90
2019-04-30T19:19:59.685Z,3.03
2019-04-30T19:22:28.681Z,2.40
2019-04-30T19:25:00.772Z,3.07
2019-04-30T19:27:29.577Z,2.40
2019-04-30T19:29:59.451Z,2.40
2019-04-30T19:32:30.315Z,4.10
2019-04-30T19:35:00.268Z,2.50
2019-04-30T19:37:28.908Z,3.50
2019-04-30T19:39:59.256Z,2.97
2019-04-30T19:42:29.503Z,12.43
2019-04-30T19:45:08.938Z,3.43
2019-04-30T19:47:30.754Z,1.87
2019-04-30T19:49:59.517Z,4.70
2019-04-30T19:52:29.651Z,3.13
2019-04-30T19:54:58.719Z,3.37
2019-04-30T19:57:28.658Z,4.33
2019-04-30T19:59:58.690Z,4.93
2019-04-30T20:02:29.471Z,5.03
2019-04-30T20:04:59.068Z,3.40
2019-04-30T20:07:29.085Z,1.77
2019-04-30T20:10:03.470Z,2.40
2019-04-30T20:12:29.081Z,4.27
2019-04-30T20:15:00.569Z,3.10
2019-04-30T20:17:29.654Z,4.50
2019-04-30T20:19:58.894Z,2.20
2019-04-30T20:22:29.293Z,2.73
2019-04-30T20:24:59.271Z,2.93
2019-04-30T20:27:29.894Z,2.70
2019-04-30T20:29:59.249Z,2.97
2019-04-30T20:32:36.210Z,1.70
2019-04-30T20:34:59.771Z,2.20
2019-04-30T20:37:29.910Z,2.10
2019-04-30T20:40:00.108Z,1.70
2019-04-30T20:42:28.864Z,2.00
2019-04-30T20:44:58.909Z,1.80
2019-04-30T20:47:29.841Z,1.80
2019-04-30T20:49:58.005Z,1.90
2019-04-30T20:52:29.083Z,2.60
2019-04-30T20:54:57.723Z,2.00
2019-04-30T20:57:26.368Z,1.90
2019-04-30T20:59:55.006Z,1.93
2019-04-30T21:02:23.698Z,2.90
2019-04-30T21:04:52.396Z,2.30
2019-04-30T21:07:21.005Z,2.60
2019-04-30T21:09:49.669Z,2.03
2019-04-30T21:12:18.869Z,2.60
2019-04-30T21:14:48.542Z,2.07
2019-04-30T21:17:17.279Z,2.80
2019-04-30T21:19:45.906Z,2.33
2019-04-30T21:22:14.548Z,2.60
2019-04-30T21:24:43.097Z,3.00
2019-04-30T21:27:11.708Z,1.77
2019-04-30T21:29:40.397Z,2.80
2019-04-30T21:32:16.513Z,1.90
2019-04-30T21:34:46.788Z,5.10
2019-04-30T21:37:15.267Z,2.27
2019-04-30T21:39:43.916Z,1.90
2019-04-30T21:42:12.542Z,2.13
2019-04-30T21:44:41.173Z,4.47
2019-04-30T21:47:09.810Z,3.07
2019-04-30T21:49:38.455Z,4.00
2019-04-30T21:52:07.074Z,2.10
2019-04-30T21:54:38.781Z,1.60
2019-04-30T21:57:06.040Z,1.70
2019-04-30T21:59:34.695Z,2.53
2019-04-30T22:02:03.707Z,3.63
2019-04-30T22:04:32.343Z,2.57
2019-04-30T22:07:00.919Z,2.17
2019-04-30T22:09:29.727Z,2.23
2019-04-30T22:11:59.208Z,2.73
2019-04-30T22:14:27.999Z,2.20
2019-04-30T22:16:56.637Z,4.23
2019-04-30T22:19:25.333Z,2.90
2019-04-30T22:21:54.259Z,2.97
2019-04-30T22:24:24.741Z,2.10
2019-04-30T22:26:53.324Z,2.00
2019-04-30T22:29:22.010Z,2.60
2019-04-30T22:31:50.646Z,2.10
2019-04-30T22:34:19.462Z,1.87
2019-04-30T22:36:49.002Z,1.77
2019-04-30T22:39:25.360Z,2.07
2019-04-30T22:42:03.064Z,1.90
2019-04-30T22:44:31.673Z,1.77
2019-04-30T22:47:00.734Z,1.90
2019-04-30T22:49:29.447Z,1.77
2019-04-30T22:51:58.077Z,2.60
2019-04-30T22:54:26.705Z,2.90
2019-04-30T22:56:55.334Z,2.20
2019-04-30T22:59:23.964Z,2.10
2019-04-30T23:01:57.014Z,2.20
2019-04-30T23:04:42.710Z,2.00
2019-04-30T23:07:11.388Z,2.20
2019-04-30T23:09:40.016Z,2.07
2019-04-30T23:12:08.718Z,2.23
2019-04-30T23:14:37.287Z,2.17
2019-04-30T23:17:06.159Z,2.37
2019-04-30T23:19:34.752Z,2.47
2019-04-30T23:22:03.379Z,1.87
2019-04-30T23:24:32.005Z,2.43
2019-04-30T23:27:00.571Z,2.40
2019-04-30T23:29:29.276Z,2.40
2019-04-30T23:31:58.116Z,2.43
2019-04-30T23:34:26.781Z,2.63
2019-04-30T23:36:55.401Z,2.70
2019-04-30T23:39:23.955Z,2.87
2019-04-30T23:41:52.598Z,2.80
2019-04-30T23:44:21.224Z,3.00
2019-04-30T23:46:49.854Z,2.70
2019-04-30T23:49:18.518Z,2.90
2019-04-30T23:51:47.142Z,2.70
2019-04-30T23:54:15.757Z,2.70
2019-04-30T23:56:44.386Z,2.57
2019-04-30T23:59:13.199Z,2.83
